createdAt,value
2018-07-15T00:00:57.722Z,982.7
2018-07-15T00:02:00.211Z,982.7
2018-07-15T00:03:01.573Z,982.7
2018-07-15T00:04:02.820Z,982.7
2018-07-15T00:05:05.031Z,982.6
2018-07-15T00:06:06.321Z,982.7
2018-07-15T00:07:07.625Z,982.7
2018-07-15T00:08:13.802Z,982.7
2018-07-15T00:09:17.842Z,982.7
2018-07-15T00:10:19.062Z,982.7
2018-07-15T00:11:20.589Z,982.8
2018-07-15T00:12:21.922Z,982.7
2018-07-15T00:13:23.184Z,982.7
2018-07-15T00:14:24.415Z,982.7
2018-07-15T00:15:25.633Z,982.7
2018-07-15T00:16:26.834Z,982.8
2018-07-15T00:17:28.057Z,982.7
2018-07-15T00:18:29.322Z,982.7
2018-07-15T00:19:30.589Z,982.8
2018-07-15T00:20:32.075Z,982.7
2018-07-15T00:21:33.265Z,982.6
2018-07-15T00:22:34.508Z,982.7
2018-07-15T00:23:35.725Z,982.8
2018-07-15T00:24:36.937Z,982.7
2018-07-15T00:25:38.155Z,982.6
2018-07-15T00:26:39.342Z,982.7
2018-07-15T00:27:41.696Z,982.7
2018-07-15T00:28:42.923Z,982.7
2018-07-15T00:29:44.139Z,982.7
2018-07-15T00:30:45.348Z,982.7
2018-07-15T00:31:50.679Z,982.7
2018-07-15T00:32:54.823Z,982.6
2018-07-15T00:33:56.485Z,982.7
2018-07-15T00:34:57.666Z,982.7
2018-07-15T00:36:00.132Z,982.6
2018-07-15T00:37:01.371Z,982.6
2018-07-15T00:38:03.328Z,982.6
2018-07-15T00:39:04.808Z,982.6
2018-07-15T00:40:06.026Z,982.6
2018-07-15T00:41:07.268Z,982.6
2018-07-15T00:42:08.496Z,982.6
2018-07-15T00:43:09.844Z,982.6
2018-07-15T00:44:13.404Z,982.6
2018-07-15T00:45:15.028Z,982.6
2018-07-15T00:46:18.320Z,982.6
2018-07-15T00:47:19.538Z,982.6
2018-07-15T00:48:22.986Z,982.6
2018-07-15T00:49:24.171Z,982.6
2018-07-15T00:50:25.378Z,982.6
2018-07-15T00:51:29.014Z,982.6
2018-07-15T00:52:30.228Z,982.6
2018-07-15T00:53:32.010Z,982.6
2018-07-15T00:54:33.175Z,982.6
2018-07-15T00:55:34.359Z,982.6
2018-07-15T00:56:35.614Z,982.6
2018-07-15T00:57:36.894Z,982.6
2018-07-15T00:58:38.366Z,982.6
2018-07-15T00:59:39.632Z,982.7
2018-07-15T01:00:40.920Z,982.6
2018-07-15T01:01:43.211Z,982.6
2018-07-15T01:02:46.139Z,982.6
2018-07-15T01:03:47.564Z,982.6
2018-07-15T01:04:48.785Z,982.6
2018-07-15T01:05:50.050Z,982.7
2018-07-15T01:06:51.275Z,982.6
2018-07-15T01:07:52.467Z,982.7
2018-07-15T01:08:53.987Z,982.6
2018-07-15T01:09:55.375Z,982.6
2018-07-15T01:10:56.583Z,982.7
2018-07-15T01:11:58.159Z,982.7
2018-07-15T01:12:59.404Z,982.6
2018-07-15T01:14:01.126Z,982.6
2018-07-15T01:15:02.319Z,982.7
2018-07-15T01:16:03.531Z,982.7
2018-07-15T01:17:04.737Z,982.6
2018-07-15T01:18:06.061Z,982.6
2018-07-15T01:19:07.291Z,982.6
2018-07-15T01:20:09.877Z,982.4
2018-07-15T01:21:11.466Z,982.6
2018-07-15T01:22:24.746Z,982.6
2018-07-15T01:23:25.947Z,982.5
2018-07-15T01:24:27.303Z,982.6
2018-07-15T01:25:28.652Z,982.5
2018-07-15T01:26:29.881Z,982.6
2018-07-15T01:27:35.481Z,982.6
2018-07-15T01:28:36.711Z,982.5
2018-07-15T01:29:38.271Z,982.6
2018-07-15T01:30:39.527Z,982.6
2018-07-15T01:31:43.026Z,982.5
2018-07-15T01:32:45.597Z,982.6
2018-07-15T01:33:46.810Z,982.6
2018-07-15T01:34:48.494Z,982.6
2018-07-15T01:35:49.732Z,982.5
2018-07-15T01:36:51.022Z,982.6
2018-07-15T01:37:55.369Z,982.6
2018-07-15T01:38:56.564Z,982.5
2018-07-15T01:39:57.827Z,982.5
2018-07-15T01:40:59.150Z,982.5
2018-07-15T01:42:00.384Z,982.4
2018-07-15T01:43:02.815Z,982.5
2018-07-15T01:44:06.707Z,982.5
2018-07-15T01:45:07.960Z,982.5
2018-07-15T01:46:09.264Z,982.5
2018-07-15T01:47:10.518Z,982.5
2018-07-15T01:48:11.728Z,982.5
2018-07-15T01:49:13.034Z,982.5
2018-07-15T01:50:14.368Z,982.5
2018-07-15T01:51:15.560Z,982.5
2018-07-15T01:52:16.745Z,982.5
2018-07-15T01:53:17.919Z,982.4
2018-07-15T01:54:19.224Z,982.4
2018-07-15T01:55:20.479Z,982.4
2018-07-15T01:56:24.139Z,982.4
2018-07-15T01:57:25.403Z,982.4
2018-07-15T01:58:27.739Z,982.3
2018-07-15T01:59:29.299Z,982.4
2018-07-15T02:00:34.641Z,982.3
2018-07-15T02:01:35.860Z,982.3
2018-07-15T02:02:37.089Z,982.3
2018-07-15T02:03:38.468Z,982.3
2018-07-15T02:04:39.734Z,982.3
2018-07-15T02:05:41.000Z,982.3
2018-07-15T02:06:42.219Z,982.3
2018-07-15T02:07:43.447Z,982.3
2018-07-15T02:08:44.694Z,982.3
2018-07-15T02:09:45.957Z,982.3
2018-07-15T02:10:49.543Z,982.3
2018-07-15T02:11:50.771Z,982.4
2018-07-15T02:12:51.983Z,982.3
2018-07-15T02:13:53.314Z,982.3
2018-07-15T02:14:54.557Z,982.3
2018-07-15T02:15:55.859Z,982.3
2018-07-15T02:16:57.123Z,982.3
2018-07-15T02:17:58.449Z,982.3
2018-07-15T02:19:02.197Z,982.3
2018-07-15T02:20:03.566Z,982.3
2018-07-15T02:21:04.834Z,982.3
2018-07-15T02:22:06.115Z,982.3
2018-07-15T02:23:07.374Z,982.3
2018-07-15T02:24:08.619Z,982.2
2018-07-15T02:25:10.833Z,982.3
2018-07-15T02:26:12.161Z,982.3
2018-07-15T02:27:13.413Z,982.3
2018-07-15T02:28:14.651Z,982.3
2018-07-15T02:29:15.871Z,982.3
2018-07-15T02:30:17.114Z,982.3
2018-07-15T02:31:18.751Z,982.3
2018-07-15T02:32:20.008Z,982.3
2018-07-15T02:33:22.090Z,982.4
2018-07-15T02:34:23.448Z,982.4
2018-07-15T02:35:24.755Z,982.4
2018-07-15T02:36:26.100Z,982.4
2018-07-15T02:37:27.402Z,982.4
2018-07-15T02:38:28.628Z,982.3
2018-07-15T02:39:29.959Z,982.4
2018-07-15T02:40:31.312Z,982.3
2018-07-15T02:41:32.843Z,982.3
2018-07-15T02:42:34.144Z,982.4
2018-07-15T02:43:35.348Z,982.3
2018-07-15T02:44:36.959Z,982.4
2018-07-15T02:45:38.264Z,982.3
2018-07-15T02:46:39.549Z,982.4
2018-07-15T02:47:40.938Z,982.4
2018-07-15T02:48:42.240Z,982.4
2018-07-15T02:49:43.660Z,982.4
2018-07-15T02:50:44.940Z,982.4
2018-07-15T02:51:46.208Z,982.4
2018-07-15T02:52:47.571Z,982.5
2018-07-15T02:53:48.847Z,982.4
2018-07-15T02:54:50.052Z,982.4
2018-07-15T02:55:51.277Z,982.4
2018-07-15T02:56:52.665Z,982.4
2018-07-15T02:57:53.985Z,982.4
2018-07-15T02:58:55.435Z,982.4
2018-07-15T02:59:56.659Z,982.4
2018-07-15T03:00:57.922Z,982.4
2018-07-15T03:02:00.206Z,982.4
2018-07-15T03:03:01.607Z,982.4
2018-07-15T03:04:02.782Z,982.4
2018-07-15T03:05:04.027Z,982.4
2018-07-15T03:06:05.229Z,982.4
2018-07-15T03:07:06.470Z,982.3
2018-07-15T03:08:08.133Z,982.3
2018-07-15T03:09:09.318Z,982.4
2018-07-15T03:10:10.734Z,982.4
2018-07-15T03:11:11.923Z,982.4
2018-07-15T03:12:13.196Z,982.4
2018-07-15T03:13:14.402Z,982.2
2018-07-15T03:14:15.559Z,982.4
2018-07-15T03:15:16.764Z,982.4
2018-07-15T03:16:18.174Z,982.4
2018-07-15T03:17:19.444Z,982.3
2018-07-15T03:18:20.644Z,982.4
2018-07-15T03:19:21.826Z,982.4
2018-07-15T03:20:23.028Z,982.3
2018-07-15T03:21:24.267Z,982.4
2018-07-15T03:22:25.463Z,982.4
2018-07-15T03:23:26.643Z,982.4
2018-07-15T03:24:27.811Z,982.4
2018-07-15T03:25:29.109Z,982.4
2018-07-15T03:26:30.294Z,982.4
2018-07-15T03:27:31.536Z,982.4
2018-07-15T03:28:35.335Z,982.4
2018-07-15T03:29:36.546Z,982.4
2018-07-15T03:30:37.734Z,982.3
2018-07-15T03:31:38.918Z,982.3
2018-07-15T03:32:40.170Z,982.3
2018-07-15T03:33:41.326Z,982.3
2018-07-15T03:34:42.514Z,982.3
2018-07-15T03:35:43.699Z,982.3
2018-07-15T03:36:44.911Z,982.2
2018-07-15T03:37:46.163Z,982.4
2018-07-15T03:38:47.344Z,982.3
2018-07-15T03:39:48.576Z,982.3
2018-07-15T03:40:49.764Z,982.3
2018-07-15T03:41:51.730Z,982.2
2018-07-15T03:42:52.999Z,982.3
2018-07-15T03:43:54.273Z,982.3
2018-07-15T03:44:55.463Z,982.3
2018-07-15T03:45:56.659Z,982.2
2018-07-15T03:46:57.841Z,982.2
2018-07-15T03:47:59.066Z,982.2
2018-07-15T03:49:00.355Z,982.2
2018-07-15T03:50:01.558Z,982.2
2018-07-15T03:51:02.749Z,982.3
2018-07-15T03:52:03.941Z,982.3
2018-07-15T03:53:05.351Z,982.3
2018-07-15T03:54:06.594Z,982.2
2018-07-15T03:55:09.972Z,982.3
2018-07-15T03:56:13.572Z,982.3
2018-07-15T03:57:14.954Z,982.2
2018-07-15T03:58:21.262Z,982.3
2018-07-15T03:59:22.619Z,982.3
2018-07-15T04:00:23.869Z,982.3
2018-07-15T04:01:27.586Z,982.2
2018-07-15T04:02:28.788Z,982.3
2018-07-15T04:03:30.064Z,982.3
2018-07-15T04:04:31.239Z,982.3
2018-07-15T04:05:32.454Z,982.3
2018-07-15T04:06:33.700Z,982.2
2018-07-15T04:07:34.902Z,982.2
2018-07-15T04:08:36.280Z,982.2
2018-07-15T04:09:37.335Z,982.2
2018-07-15T04:10:38.819Z,982.2
2018-07-15T04:11:40.011Z,982.2
2018-07-15T04:12:41.232Z,982.3
2018-07-15T04:13:42.482Z,982.2
2018-07-15T04:14:43.687Z,982.2
2018-07-15T04:15:44.926Z,982.2
2018-07-15T04:16:46.098Z,982.3
2018-07-15T04:17:47.869Z,982.1
2018-07-15T04:18:49.173Z,982.3
2018-07-15T04:19:50.398Z,982.2
2018-07-15T04:20:51.643Z,982.3
2018-07-15T04:21:52.811Z,982.3
2018-07-15T04:22:56.294Z,982.3
2018-07-15T04:23:57.506Z,982.4
2018-07-15T04:24:58.701Z,982.4
2018-07-15T04:25:59.939Z,982.3
2018-07-15T04:27:01.152Z,982.4
2018-07-15T04:28:02.380Z,982.4
2018-07-15T04:29:03.579Z,982.2
2018-07-15T04:30:07.290Z,982.4
2018-07-15T04:31:08.508Z,982.4
2018-07-15T04:32:09.712Z,982.4
2018-07-15T04:33:10.910Z,982.3
2018-07-15T04:34:12.169Z,982.4
2018-07-15T04:35:13.358Z,982.3
2018-07-15T04:36:14.665Z,982.3
2018-07-15T04:37:16.269Z,982.3
2018-07-15T04:38:17.449Z,982.3
2018-07-15T04:39:18.649Z,982.3
2018-07-15T04:40:19.878Z,982.3
2018-07-15T04:41:23.231Z,982.4
2018-07-15T04:42:24.429Z,982.4
2018-07-15T04:43:25.967Z,982.5
2018-07-15T04:44:27.256Z,982.4
2018-07-15T04:45:28.479Z,982.4
2018-07-15T04:46:29.748Z,982.6
2018-07-15T04:47:30.952Z,982.6
2018-07-15T04:48:32.170Z,982.7
2018-07-15T04:49:33.704Z,982.8
2018-07-15T04:50:34.938Z,982.8
2018-07-15T04:51:36.112Z,982.8
2018-07-15T04:52:37.307Z,982.9
2018-07-15T04:53:38.469Z,983
2018-07-15T04:54:39.726Z,982.9
2018-07-15T04:55:40.991Z,982.9
2018-07-15T04:56:42.278Z,983
2018-07-15T04:57:43.470Z,982.9
2018-07-15T04:58:44.703Z,983
2018-07-15T04:59:45.929Z,982.9
2018-07-15T05:00:48.090Z,983.1
2018-07-15T05:01:49.287Z,982.9
2018-07-15T05:02:51.819Z,983
2018-07-15T05:03:54.118Z,982.8
2018-07-15T05:04:55.541Z,982.9
2018-07-15T05:05:56.716Z,983.1
2018-07-15T05:06:57.907Z,982.9
2018-07-15T05:07:59.076Z,983
2018-07-15T05:09:00.365Z,982.8
2018-07-15T05:10:01.705Z,983
2018-07-15T05:11:02.909Z,982.8
2018-07-15T05:12:04.288Z,982.9
2018-07-15T05:13:05.535Z,982.9
2018-07-15T05:14:06.744Z,982.8
2018-07-15T05:15:07.986Z,982.8
2018-07-15T05:16:09.183Z,983
2018-07-15T05:17:10.431Z,983.2
2018-07-15T05:18:11.654Z,983.2
2018-07-15T05:19:12.994Z,983.1
2018-07-15T05:20:14.533Z,983.2
2018-07-15T05:21:17.948Z,983.2
2018-07-15T05:22:19.100Z,982.9
2018-07-15T05:23:20.310Z,983.1
2018-07-15T05:24:22.822Z,983.4
2018-07-15T05:25:24.055Z,983.3
2018-07-15T05:26:25.248Z,983.1
2018-07-15T05:27:26.466Z,983.1
2018-07-15T05:28:27.699Z,983.1
2018-07-15T05:29:28.864Z,983.5
2018-07-15T05:30:30.059Z,983
2018-07-15T05:31:31.362Z,983.2
2018-07-15T05:32:32.568Z,983.2
2018-07-15T05:33:33.814Z,982.6
2018-07-15T05:34:35.032Z,983.2
2018-07-15T05:35:36.572Z,983.2
2018-07-15T05:36:37.795Z,983.5
2018-07-15T05:37:38.986Z,982.6
2018-07-15T05:38:40.182Z,982.4
2018-07-15T05:39:41.349Z,982.3
2018-07-15T05:40:42.602Z,982.3
2018-07-15T05:41:43.786Z,982.6
2018-07-15T05:42:45.036Z,982.5
2018-07-15T05:43:46.206Z,982.9
2018-07-15T05:44:47.378Z,982.8
2018-07-15T05:45:48.651Z,983.1
2018-07-15T05:46:50.002Z,982.6
2018-07-15T05:47:51.175Z,983
2018-07-15T05:48:52.343Z,982.8
2018-07-15T05:49:53.522Z,983
2018-07-15T05:50:56.977Z,982.8
2018-07-15T05:51:58.252Z,983.4
2018-07-15T05:52:59.666Z,983.1
2018-07-15T05:54:00.878Z,983.2
2018-07-15T05:55:02.191Z,983.2
2018-07-15T05:56:03.723Z,983.7
2018-07-15T05:57:04.959Z,983.3
2018-07-15T05:58:06.418Z,983
2018-07-15T05:59:07.516Z,983.6
2018-07-15T06:00:10.921Z,983.2
2018-07-15T06:01:12.155Z,983.1
2018-07-15T06:02:13.436Z,982.9
2018-07-15T06:03:14.776Z,983.1
2018-07-15T06:04:16.119Z,983
2018-07-15T06:05:17.302Z,982.9
2018-07-15T06:06:18.762Z,983
2018-07-15T06:07:19.958Z,982.9
2018-07-15T06:08:21.922Z,983.5
2018-07-15T06:09:23.125Z,982.8
2018-07-15T06:10:24.331Z,982.7
2018-07-15T06:11:25.668Z,982.8
2018-07-15T06:12:26.865Z,983.1
2018-07-15T06:13:28.062Z,983.1
2018-07-15T06:14:29.333Z,983.2
2018-07-15T06:15:30.842Z,983.1
2018-07-15T06:16:32.062Z,983.1
2018-07-15T06:17:33.391Z,983.2
2018-07-15T06:18:34.608Z,983.4
2018-07-15T06:19:35.835Z,983
2018-07-15T06:20:37.002Z,983
2018-07-15T06:21:38.216Z,983.3
2018-07-15T06:22:39.394Z,983
2018-07-15T06:23:40.599Z,983
2018-07-15T06:24:41.869Z,982.9
2018-07-15T06:25:43.179Z,983
2018-07-15T06:26:44.837Z,983.1
2018-07-15T06:27:46.111Z,983.2
2018-07-15T06:28:47.338Z,983
2018-07-15T06:29:48.531Z,984.1
2018-07-15T06:30:49.695Z,983.3
2018-07-15T06:31:51.056Z,982.7
2018-07-15T06:32:52.179Z,983.7
2018-07-15T06:33:56.624Z,983.6
2018-07-15T06:34:57.802Z,983.4
2018-07-15T06:35:59.094Z,983
2018-07-15T06:37:00.502Z,982.9
2018-07-15T06:38:04.094Z,983.2
2018-07-15T06:39:05.392Z,982.9
2018-07-15T06:40:06.614Z,982.9
2018-07-15T06:41:07.815Z,982.9
2018-07-15T06:42:09.069Z,983.5
2018-07-15T06:43:10.265Z,983.8
2018-07-15T06:44:11.680Z,983.3
2018-07-15T06:45:13.115Z,983
2018-07-15T06:46:14.307Z,982.7
2018-07-15T06:47:15.552Z,982.8
2018-07-15T06:48:19.186Z,983.4
2018-07-15T06:49:20.528Z,983
2018-07-15T06:50:21.685Z,983.5
2018-07-15T06:51:22.860Z,983.1
2018-07-15T06:52:24.090Z,983
2018-07-15T06:53:25.309Z,983
2018-07-15T06:54:26.542Z,982.9
2018-07-15T06:55:27.804Z,983.3
2018-07-15T06:56:29.001Z,983.5
2018-07-15T06:57:30.202Z,983.4
2018-07-15T06:58:32.565Z,983
2018-07-15T06:59:35.913Z,982.9
2018-07-15T07:00:37.153Z,983.1
2018-07-15T07:01:38.385Z,982.8
2018-07-15T07:02:39.605Z,982.8
2018-07-15T07:03:40.759Z,982.8
2018-07-15T07:04:43.194Z,983.5
2018-07-15T07:05:44.399Z,982.9
2018-07-15T07:06:45.651Z,983
2018-07-15T07:07:47.213Z,983.3
2018-07-15T07:08:48.505Z,983.1
2018-07-15T07:09:49.673Z,983
2018-07-15T07:10:50.856Z,983.1
2018-07-15T07:11:52.034Z,982.9
2018-07-15T07:12:53.313Z,983
2018-07-15T07:13:54.557Z,983.1
2018-07-15T07:14:56.227Z,983.6
2018-07-15T07:15:57.478Z,983.3
2018-07-15T07:16:58.640Z,982.8
2018-07-15T07:17:59.862Z,982.9
2018-07-15T07:19:03.242Z,982.6
2018-07-15T07:20:04.424Z,983.2
2018-07-15T07:21:05.708Z,983.3
2018-07-15T07:22:06.875Z,983.1
2018-07-15T07:23:08.139Z,982.9
2018-07-15T07:24:09.335Z,982.7
2018-07-15T07:25:10.692Z,982.9
2018-07-15T07:26:12.684Z,983.2
2018-07-15T07:27:13.854Z,983
2018-07-15T07:28:15.098Z,982.8
2018-07-15T07:29:16.368Z,982.9
2018-07-15T07:30:17.772Z,983.3
2018-07-15T07:31:19.065Z,983.1
2018-07-15T07:32:20.278Z,983.3
2018-07-15T07:33:21.709Z,983.2
2018-07-15T07:34:24.156Z,982.9
2018-07-15T07:35:25.397Z,983
2018-07-15T07:36:26.567Z,982.8
2018-07-15T07:37:27.774Z,983
2018-07-15T07:38:29.296Z,983.3
2018-07-15T07:39:30.502Z,983.5
2018-07-15T07:40:31.838Z,983
2018-07-15T07:41:35.424Z,982.9
2018-07-15T07:42:36.834Z,983.2
2018-07-15T07:43:40.488Z,982.7
2018-07-15T07:44:41.683Z,983.5
2018-07-15T07:45:43.233Z,983.6
2018-07-15T07:46:44.438Z,983
2018-07-15T07:47:45.698Z,982.8
2018-07-15T07:48:46.893Z,982.8
2018-07-15T07:49:48.061Z,982.9
2018-07-15T07:50:49.296Z,983.6
2018-07-15T07:51:50.488Z,983.6
2018-07-15T07:52:51.768Z,983
2018-07-15T07:53:53.067Z,982.8
2018-07-15T07:54:54.294Z,983.2
2018-07-15T07:55:55.498Z,982.6
2018-07-15T07:56:58.922Z,982.7
2018-07-15T07:58:00.098Z,982.7
2018-07-15T07:59:01.700Z,983
2018-07-15T08:00:04.158Z,983
2018-07-15T08:01:06.389Z,983
2018-07-15T08:02:07.691Z,982.8
2018-07-15T08:03:09.110Z,982.9
2018-07-15T08:04:10.322Z,982.7
2018-07-15T08:05:11.639Z,982.8
2018-07-15T08:06:16.202Z,982.9
2018-07-15T08:07:18.407Z,982.7
2018-07-15T08:08:19.628Z,982.7
2018-07-15T08:09:20.915Z,984.4
2018-07-15T08:10:22.086Z,983.4
2018-07-15T08:11:23.307Z,982.9
2018-07-15T08:12:24.506Z,983.5
2018-07-15T08:13:25.742Z,985.3
2018-07-15T08:14:26.990Z,983.7
2018-07-15T08:15:28.158Z,982.7
2018-07-15T08:16:29.332Z,982.5
2018-07-15T08:17:30.635Z,982.9
2018-07-15T08:18:31.880Z,983.2
2018-07-15T08:19:33.096Z,983.5
2018-07-15T08:20:35.263Z,984.8
2018-07-15T08:21:36.763Z,982.8
2018-07-15T08:22:41.650Z,983.9
2018-07-15T08:23:46.180Z,983.6
2018-07-15T08:24:47.479Z,983.6
2018-07-15T08:25:48.671Z,983.2
2018-07-15T08:26:49.878Z,982.4
2018-07-15T08:27:51.220Z,982.2
2018-07-15T08:28:52.452Z,983.1
2018-07-15T08:29:53.690Z,983.2
2018-07-15T08:30:54.959Z,983.1
2018-07-15T08:31:56.200Z,983.6
2018-07-15T08:32:57.511Z,983.2
2018-07-15T08:33:58.725Z,983.2
2018-07-15T08:35:00.118Z,982.6
2018-07-15T08:36:04.771Z,982.5
2018-07-15T08:37:16.649Z,982.3
2018-07-15T08:38:19.990Z,983.1
2018-07-15T08:39:21.163Z,982.4
2018-07-15T08:40:22.648Z,982
2018-07-15T08:41:24.461Z,982.8
2018-07-15T08:42:25.734Z,982
2018-07-15T08:43:26.955Z,982.2
2018-07-15T08:44:28.230Z,982.8
2018-07-15T08:45:29.456Z,982.8
2018-07-15T08:46:30.660Z,982.7
2018-07-15T08:47:31.978Z,982.3
2018-07-15T08:48:35.604Z,983
2018-07-15T08:49:36.858Z,983.1
2018-07-15T08:50:38.189Z,983
2018-07-15T08:51:39.381Z,983.2
2018-07-15T08:52:41.635Z,982.2
2018-07-15T08:53:45.262Z,983.3
2018-07-15T08:54:46.669Z,983.7
2018-07-15T08:55:47.866Z,983.2
2018-07-15T08:56:49.664Z,983.9
2018-07-15T08:57:50.858Z,982.3
2018-07-15T08:58:55.122Z,981.9
2018-07-15T08:59:56.380Z,982
2018-07-15T09:00:57.616Z,981.8
2018-07-15T09:02:00.168Z,981.7
2018-07-15T09:03:01.411Z,982.2
2018-07-15T09:04:02.615Z,982.2
2018-07-15T09:05:03.819Z,981.5
2018-07-15T09:06:05.049Z,982
2018-07-15T09:07:06.350Z,982.5
2018-07-15T09:08:07.547Z,982.1
2018-07-15T09:09:08.727Z,982.3
2018-07-15T09:10:09.955Z,982.2
2018-07-15T09:11:11.454Z,981.6
2018-07-15T09:12:12.802Z,981.6
2018-07-15T09:13:14.242Z,982
2018-07-15T09:14:15.638Z,982.3
2018-07-15T09:15:16.840Z,981.5
2018-07-15T09:16:18.373Z,982.1
2018-07-15T09:17:19.563Z,982.1
2018-07-15T09:18:20.858Z,982.4
2018-07-15T09:19:22.084Z,981.8
2018-07-15T09:20:23.615Z,981.5
2018-07-15T09:21:24.915Z,981.5
2018-07-15T09:22:28.625Z,981.8
2018-07-15T09:23:32.346Z,981.6
2018-07-15T09:24:37.549Z,981.8
2018-07-15T09:25:38.800Z,982
2018-07-15T09:26:42.411Z,982.1
2018-07-15T09:27:43.699Z,981.5
2018-07-15T09:28:46.810Z,982.2
2018-07-15T09:29:49.222Z,982
2018-07-15T09:30:50.506Z,981.4
2018-07-15T09:31:57.127Z,981.6
2018-07-15T09:32:58.442Z,981.2
2018-07-15T09:33:59.786Z,981.4
2018-07-15T09:35:01.025Z,981.6
2018-07-15T09:36:04.448Z,981.4
2018-07-15T09:37:12.610Z,981.5
2018-07-15T09:38:18.685Z,982.5
2018-07-15T09:39:19.935Z,981.3
2018-07-15T09:40:21.336Z,981.3
2018-07-15T09:41:24.142Z,981.4
2018-07-15T09:42:28.264Z,981.4
2018-07-15T09:43:29.442Z,981.4
2018-07-15T09:44:32.342Z,981.5
2018-07-15T09:45:36.075Z,981.5
2018-07-15T09:46:37.419Z,981.9
2018-07-15T09:47:38.978Z,981.8
2018-07-15T09:48:42.697Z,981.4
2018-07-15T09:49:43.877Z,981.9
2018-07-15T09:50:45.428Z,981.6
2018-07-15T09:51:48.716Z,981.2
2018-07-15T09:52:50.118Z,981.4
2018-07-15T09:53:51.352Z,981.3
2018-07-15T09:54:52.722Z,981.3
2018-07-15T09:55:54.132Z,981.3
2018-07-15T09:56:55.343Z,981.4
2018-07-15T09:57:56.713Z,981.3
2018-07-15T09:58:57.945Z,981.3
2018-07-15T10:00:00.160Z,981.3
2018-07-15T10:01:01.626Z,981.3
2018-07-15T10:02:02.853Z,981.2
2018-07-15T10:03:06.177Z,981.3
2018-07-15T10:04:08.466Z,981.2
2018-07-15T10:05:10.293Z,981.2
2018-07-15T10:06:11.489Z,981.3
2018-07-15T10:07:12.713Z,981.2
2018-07-15T10:08:14.304Z,981.2
2018-07-15T10:09:15.515Z,981.3
2018-07-15T10:10:16.867Z,981.3
2018-07-15T10:11:24.375Z,981.4
2018-07-15T10:12:28.921Z,981.3
2018-07-15T10:13:34.880Z,981.3
2018-07-15T10:14:36.133Z,981.3
2018-07-15T10:15:37.574Z,981.2
2018-07-15T10:16:43.458Z,981.2
2018-07-15T10:17:44.807Z,981.2
2018-07-15T10:18:48.197Z,981.1
2018-07-15T10:21:07.842Z,981.2
2018-07-15T10:22:09.242Z,981.2
2018-07-15T10:23:10.778Z,981.2
2018-07-15T10:24:12.481Z,981.1
2018-07-15T10:25:13.664Z,981
2018-07-15T10:26:15.127Z,981.2
2018-07-15T10:27:18.096Z,981.1
2018-07-15T10:28:19.348Z,981.2
2018-07-15T10:29:20.630Z,981.1
2018-07-15T10:30:21.836Z,981
2018-07-15T10:31:24.032Z,981.1
2018-07-15T10:32:25.253Z,981.1
2018-07-15T10:33:26.956Z,981.1
2018-07-15T10:34:29.340Z,981.2
2018-07-15T10:35:40.316Z,981
2018-07-15T10:36:45.864Z,981.2
2018-07-15T10:38:18.351Z,981.1
2018-07-15T10:39:38.099Z,981
2018-07-15T10:40:39.454Z,981.1
2018-07-15T10:41:40.874Z,981
2018-07-15T10:42:43.047Z,981.1
2018-07-15T10:43:44.273Z,981.1
2018-07-15T10:44:45.634Z,981.1
2018-07-15T10:45:46.935Z,981.1
2018-07-15T10:46:49.334Z,981.1
2018-07-15T10:47:50.575Z,981
2018-07-15T10:48:51.980Z,981.1
2018-07-15T10:49:53.343Z,981
2018-07-15T10:50:54.742Z,981
2018-07-15T10:53:02.855Z,981
2018-07-15T10:54:04.111Z,980.9
2018-07-15T10:55:05.877Z,980.8
2018-07-15T10:56:08.332Z,980.9
2018-07-15T10:57:10.914Z,980.8
2018-07-15T10:58:12.204Z,980.9
2018-07-15T10:59:13.728Z,980.9
2018-07-15T11:00:16.440Z,980.9
2018-07-15T11:01:17.663Z,980.9
2018-07-15T11:02:19.367Z,980.9
2018-07-15T11:03:20.643Z,980.9
2018-07-15T11:04:24.897Z,980.8
2018-07-15T11:05:28.386Z,981
2018-07-15T11:06:29.657Z,980.9
2018-07-15T11:07:33.348Z,980.9
2018-07-15T11:08:38.872Z,980.8
2018-07-15T11:09:40.350Z,980.8
2018-07-15T11:10:42.044Z,980.8
2018-07-15T11:11:43.264Z,980.8
2018-07-15T11:12:44.802Z,980.8
2018-07-15T11:14:03.395Z,980.8
2018-07-15T11:15:04.655Z,980.8
2018-07-15T11:16:09.095Z,980.8
2018-07-15T11:17:10.305Z,980.9
2018-07-15T11:18:16.763Z,980.8
2018-07-15T11:19:21.782Z,980.8
2018-07-15T11:20:22.995Z,980.8
2018-07-15T11:21:24.457Z,980.7
2018-07-15T11:22:26.146Z,980.6
2018-07-15T11:23:27.680Z,980.5
2018-07-15T11:24:31.246Z,980.6
2018-07-15T11:25:33.233Z,980.7
2018-07-15T11:26:37.727Z,980.6
2018-07-15T11:27:39.218Z,980.6
2018-07-15T11:28:40.625Z,980.6
2018-07-15T11:29:44.230Z,980.7
2018-07-15T11:30:47.535Z,980.7
2018-07-15T11:31:48.815Z,980.7
2018-07-15T11:32:50.095Z,980.7
2018-07-15T11:33:51.291Z,980.7
2018-07-15T11:34:52.572Z,980.7
2018-07-15T11:35:53.844Z,980.7
2018-07-15T11:36:55.043Z,980.7
2018-07-15T11:37:56.365Z,980.7
2018-07-15T11:38:57.851Z,980.6
2018-07-15T11:39:59.067Z,980.6
2018-07-15T11:41:00.376Z,980.7
2018-07-15T11:42:03.807Z,980.6
2018-07-15T11:43:12.266Z,980.6
2018-07-15T11:44:13.494Z,980.6
2018-07-15T11:45:17.303Z,980.6
2018-07-15T11:46:18.500Z,980.6
2018-07-15T11:47:19.958Z,980.6
2018-07-15T11:48:21.369Z,980.6
2018-07-15T11:49:22.650Z,980.5
2018-07-15T11:50:23.956Z,980.5
2018-07-15T11:51:25.556Z,980.5
2018-07-15T11:52:27.090Z,980.5
2018-07-15T11:53:28.576Z,980.4
2018-07-15T11:54:34.692Z,980.5
2018-07-15T11:55:38.283Z,980.5
2018-07-15T11:56:39.513Z,980.3
2018-07-15T11:57:40.854Z,980.2
2018-07-15T11:58:42.851Z,980.4
2018-07-15T11:59:44.359Z,980.4
2018-07-15T12:01:07.806Z,980.4
2018-07-15T12:02:09.093Z,980.4
2018-07-15T12:03:10.378Z,980.4
2018-07-15T12:04:11.660Z,980.3
2018-07-15T12:05:15.471Z,980.3
2018-07-15T12:06:16.675Z,980.3
2018-07-15T12:07:18.004Z,980.3
2018-07-15T12:08:20.289Z,980.3
2018-07-15T12:09:21.490Z,980.3
2018-07-15T12:10:27.755Z,980.3
2018-07-15T12:11:33.393Z,980.2
2018-07-15T12:12:34.832Z,980.3
2018-07-15T12:13:39.501Z,980.2
2018-07-15T12:14:40.723Z,980.3
2018-07-15T12:15:42.511Z,980.3
2018-07-15T12:16:46.130Z,980.2
2018-07-15T12:17:47.438Z,980.2
2018-07-15T12:18:48.884Z,980.2
2018-07-15T12:19:50.558Z,980.1
2018-07-15T12:20:51.964Z,980.2
2018-07-15T12:21:55.757Z,980.2
2018-07-15T12:22:57.091Z,980
2018-07-15T12:23:58.615Z,980.1
2018-07-15T12:25:02.260Z,980.1
2018-07-15T12:26:03.495Z,980.1
2018-07-15T12:27:07.268Z,980.1
2018-07-15T12:28:10.225Z,980.1
2018-07-15T12:29:11.827Z,980.1
2018-07-15T12:30:13.359Z,980.1
2018-07-15T12:31:18.008Z,979.9
2018-07-15T12:32:19.513Z,979.9
2018-07-15T12:33:24.816Z,980.1
2018-07-15T12:34:28.479Z,980.1
2018-07-15T12:35:30.170Z,980
2018-07-15T12:36:31.426Z,980.1
2018-07-15T12:37:32.677Z,980.1
2018-07-15T12:38:37.546Z,980
2018-07-15T12:39:38.792Z,979.9
2018-07-15T12:40:40.131Z,979.9
2018-07-15T12:41:41.580Z,979.9
2018-07-15T12:42:42.989Z,980
2018-07-15T12:43:44.494Z,980.1
2018-07-15T12:44:45.779Z,980.1
2018-07-15T12:45:47.013Z,980.1
2018-07-15T12:46:48.709Z,980.1
2018-07-15T12:47:50.162Z,980.1
2018-07-15T12:48:52.486Z,979.9
2018-07-15T12:49:53.778Z,980
2018-07-15T12:50:57.588Z,980
2018-07-15T12:51:59.263Z,980.1
2018-07-15T12:53:00.574Z,979.9
2018-07-15T12:54:01.868Z,979.8
2018-07-15T12:55:05.525Z,979.9
2018-07-15T12:56:09.209Z,979.9
2018-07-15T12:57:13.513Z,979.9
2018-07-15T12:58:14.761Z,979.9
2018-07-15T12:59:16.165Z,979.9
2018-07-15T13:00:23.851Z,979.9
2018-07-15T13:01:30.496Z,979.9
2018-07-15T13:02:34.238Z,979.8
2018-07-15T13:03:35.855Z,979.8
2018-07-15T13:04:41.607Z,979.8
2018-07-15T13:05:44.131Z,979.9
2018-07-15T13:06:45.330Z,979.9
2018-07-15T13:07:48.697Z,979.9
2018-07-15T13:08:49.869Z,979.9
2018-07-15T13:09:51.620Z,979.8
2018-07-15T13:10:54.093Z,979.8
2018-07-15T13:11:55.346Z,979.8
2018-07-15T13:12:56.708Z,979.8
2018-07-15T13:13:59.358Z,979.8
2018-07-15T13:15:01.161Z,979.9
2018-07-15T13:16:02.433Z,979.8
2018-07-15T13:17:06.071Z,979.8
2018-07-15T13:18:07.278Z,979.7
2018-07-15T13:19:11.849Z,979.7
2018-07-15T13:20:14.266Z,979.6
2018-07-15T13:21:15.624Z,979.6
2018-07-15T13:22:18.097Z,979.7
2018-07-15T13:23:21.428Z,979.7
2018-07-15T13:24:23.318Z,979.7